Aérodrome :
LOGIN :

S'inscrire | Disclaimer

   EN    FR    IT 

 










Légende :    VFR   VFR Marginal   IFR   IFR Intensif   IFR Très Intensif
Visi : 
Plafond : 
>= 8 km
>= 3000ft
5 à 8 km
1000 à 3000 ft
1500m à 5 km
500 à 1000 ft
800 à 1500m
200 à 500 ft
< 800m
< 200 ft
Symboles :   Orages  Brouillard  Fortes neiges  Fortes précipitations  Vent > 20 kt
SIGMETs :   Divers  Orages  Givrage  Turbulence  Onde Orograph.  Cendres Volcan.






- Altitude de l'aérodrome : 357 ft
- Code IATA : TUF


LFOT - Tours

DERNIER METAR :
  • 140100Z AUTO 22009KT 9999 BKN007 OVC130 05/04 Q0995 BECMG NSC

METARs EXPIRÉS :
  • 140030Z AUTO 20007KT 9999 FEW040 SCT100 OVC120 05/04 Q0995 NOSIG
  • 140000Z AUTO 19006KT 9999 FEW042/// SCT064/// OVC096/// ///TCU 05/04 Q0995 BECMG NSC
  • 132330Z AUTO 19005KT 150V220 9999 -RA BKN028/// OVC037/// ///CB 05/04 Q0994 BECMG BKN035
  • 132300Z AUTO 26013KT 7000 RA FEW008/// SCT012/// OVC031/// ///CB 06/04 Q0995 TEMPO 18016G30KT 3000 RA BECMG BKN035
  • 132230Z AUTO 18012KT 150V210 5000 RA BR OVC011/// ///CB 07/06 Q0995 TEMPO 18016G30KT BECMG NSW BKN035
  • 132200Z AUTO 16015KT 9999 -RA OVC014/// ///CB 07/05 Q0995 TEMPO 18016G30KT 3000 RA BKN008 SCT020CB

TAF TAF LFOT
Valide du 14 à 00h jusqu'au 15 à 00h UTC


132300Z 1400/1424 22010KT CAVOK
BECMG 1406/1408 BKN012
BECMG 1410/1412 SCT025
BECMG 1412/1414 11005KT
TEMPO 1415/1418 -SHRA BKN030 SCT035TCU
BECMG 1420/1424 03004KT



MET'MAP, la Météo Aéronautique d'un coup d'oeil ! - Copyright ORBIFLY Décembre 2007 - Disclaimer

ORBIFLY MET'MAP TEAM :

Programmation & Développement : Alexandra Zaïnal
Conception & Développement : Baudouin d'Aumeries
Co-Programmation & Développement : Marc-Olivier Méhu
Soutien technique & logistique : Manuel Goepfert

Contact : metmap@orbifly.com




SOURCES & CREDITS :

   NOAA